createdAt,value
2019-05-10T00:00:02.502Z,982.94
2019-05-10T00:01:02.565Z,982.97
2019-05-10T00:02:02.589Z,982.99
2019-05-10T00:03:02.622Z,983.01
2019-05-10T00:04:02.666Z,983.01
2019-05-10T00:05:02.704Z,983.04
2019-05-10T00:06:02.744Z,983.05
2019-05-10T00:07:02.787Z,983.05
2019-05-10T00:08:02.825Z,983.04
2019-05-10T00:09:02.879Z,983.11
2019-05-10T00:10:02.907Z,983.12
2019-05-10T00:11:02.959Z,983.11
2019-05-10T00:12:03.078Z,983.16
2019-05-10T00:13:03.035Z,983.19
2019-05-10T00:14:03.070Z,983.20
2019-05-10T00:15:03.117Z,983.22
2019-05-10T00:16:03.153Z,983.20
2019-05-10T00:17:03.246Z,983.19
2019-05-10T00:18:03.232Z,983.22
2019-05-10T00:19:03.282Z,983.21
2019-05-10T00:20:03.416Z,983.21
2019-05-10T00:21:03.369Z,983.27
2019-05-10T00:22:03.393Z,983.18
2019-05-10T00:23:03.434Z,983.22
2019-05-10T00:24:03.484Z,983.22
2019-05-10T00:25:04.970Z,983.29
2019-05-10T00:26:03.556Z,983.27
2019-05-10T00:27:03.646Z,983.32
2019-05-10T00:28:03.646Z,983.32
2019-05-10T00:29:03.678Z,983.34
2019-05-10T00:30:03.726Z,983.34
2019-05-10T00:31:03.773Z,983.34
2019-05-10T00:32:03.799Z,983.36
2019-05-10T00:33:03.847Z,983.33
2019-05-10T00:34:03.880Z,983.33
2019-05-10T00:35:03.921Z,983.33
2019-05-10T00:36:03.960Z,983.31
2019-05-10T00:37:04.008Z,983.31
2019-05-10T00:38:04.042Z,983.33
2019-05-10T00:39:04.091Z,983.29
2019-05-10T00:40:04.122Z,983.30
2019-05-10T00:41:04.165Z,983.33
2019-05-10T00:42:04.208Z,983.36
2019-05-10T00:43:04.258Z,983.42
2019-05-10T00:44:04.297Z,983.37
2019-05-10T00:45:04.332Z,983.41
2019-05-10T00:46:04.369Z,983.40
2019-05-10T00:47:04.414Z,983.38
2019-05-10T00:48:04.456Z,983.43
2019-05-10T00:49:04.500Z,983.42
2019-05-10T00:50:04.527Z,983.41
2019-05-10T00:51:04.566Z,983.49
2019-05-10T00:52:04.608Z,983.45
2019-05-10T00:53:04.648Z,983.48
2019-05-10T00:54:04.688Z,983.49
2019-05-10T00:55:17.869Z,983.50
2019-05-10T00:56:04.769Z,983.53
2019-05-10T00:57:04.815Z,983.55
2019-05-10T00:58:04.931Z,983.55
2019-05-10T00:59:04.892Z,983.54
2019-05-10T01:00:04.930Z,983.58
2019-05-10T01:01:04.971Z,983.53
2019-05-10T01:02:05.010Z,983.53
2019-05-10T01:03:05.053Z,983.52
2019-05-10T01:04:05.093Z,983.57
2019-05-10T01:05:05.135Z,983.53
2019-05-10T01:06:05.515Z,983.56
2019-05-10T01:07:05.265Z,983.54
2019-05-10T01:08:05.253Z,983.53
2019-05-10T01:09:05.304Z,983.57
2019-05-10T01:10:05.335Z,983.55
2019-05-10T01:11:05.381Z,983.57
2019-05-10T01:12:05.419Z,983.53
2019-05-10T01:13:05.457Z,983.56
2019-05-10T01:14:05.507Z,983.59
2019-05-10T01:15:05.544Z,983.59
2019-05-10T01:16:05.584Z,983.61
2019-05-10T01:17:05.620Z,983.61
2019-05-10T01:18:05.659Z,983.64
2019-05-10T01:19:05.700Z,983.64
2019-05-10T01:20:05.741Z,983.63
2019-05-10T01:21:05.786Z,983.65
2019-05-10T01:22:05.829Z,983.66
2019-05-10T01:23:05.862Z,983.64
2019-05-10T01:24:05.901Z,983.67
2019-05-10T01:25:05.950Z,983.67
2019-05-10T01:26:05.984Z,983.66
2019-05-10T01:27:06.023Z,983.70
2019-05-10T01:28:06.377Z,983.69
2019-05-10T01:29:06.108Z,983.69
2019-05-10T01:30:06.149Z,983.70
2019-05-10T01:31:06.189Z,983.71
2019-05-10T01:32:06.229Z,983.72
2019-05-10T01:33:06.274Z,983.73
2019-05-10T01:34:06.311Z,983.80
2019-05-10T01:35:06.351Z,983.78
2019-05-10T01:36:06.390Z,983.77
2019-05-10T01:37:06.431Z,983.79
2019-05-10T01:38:06.471Z,983.74
2019-05-10T01:39:06.512Z,983.78
2019-05-10T01:40:06.555Z,983.77
2019-05-10T01:41:06.593Z,983.83
2019-05-10T01:42:06.636Z,983.80
2019-05-10T01:43:06.680Z,983.81
2019-05-10T01:44:06.717Z,983.83
2019-05-10T01:45:06.770Z,983.88
2019-05-10T01:46:06.798Z,983.90
2019-05-10T01:47:06.836Z,983.91
2019-05-10T01:48:06.879Z,983.92
2019-05-10T01:49:06.919Z,983.90
2019-05-10T01:50:06.969Z,983.94
2019-05-10T01:51:06.997Z,983.93
2019-05-10T01:52:07.040Z,983.94
2019-05-10T01:53:07.087Z,983.97
2019-05-10T01:54:07.118Z,983.98
2019-05-10T01:55:07.159Z,983.98
2019-05-10T01:56:07.207Z,984.01
2019-05-10T01:57:07.241Z,984.01
2019-05-10T01:58:07.287Z,984.00
2019-05-10T01:59:07.323Z,984.00
2019-05-10T02:00:07.364Z,984.00
2019-05-10T02:01:07.421Z,983.98
2019-05-10T02:02:07.444Z,984.02
2019-05-10T02:03:07.485Z,984.02
2019-05-10T02:04:07.533Z,984.04
2019-05-10T02:05:07.575Z,984.03
2019-05-10T02:06:07.607Z,984.04
2019-05-10T02:07:07.648Z,984.04
2019-05-10T02:08:07.686Z,984.02
2019-05-10T02:09:07.728Z,984.05
2019-05-10T02:10:07.778Z,984.04
2019-05-10T02:11:07.813Z,984.04
2019-05-10T02:12:07.852Z,984.05
2019-05-10T02:13:08.025Z,984.10
2019-05-10T02:14:07.996Z,984.06
2019-05-10T02:15:07.973Z,984.06
2019-05-10T02:16:08.015Z,984.09
2019-05-10T02:17:08.054Z,984.07
2019-05-10T02:18:08.093Z,984.10
2019-05-10T02:19:08.139Z,984.10
2019-05-10T02:20:08.175Z,984.15
2019-05-10T02:21:08.216Z,984.14
2019-05-10T02:22:08.257Z,984.14
2019-05-10T02:23:08.295Z,984.18
2019-05-10T02:24:08.354Z,984.18
2019-05-10T02:25:08.377Z,984.15
2019-05-10T02:26:09.985Z,984.18
2019-05-10T02:27:08.459Z,984.17
2019-05-10T02:28:08.505Z,984.22
2019-05-10T02:29:08.540Z,984.22
2019-05-10T02:30:08.584Z,984.22
2019-05-10T02:31:08.623Z,984.26
2019-05-10T02:32:08.662Z,984.26
2019-05-10T02:33:08.706Z,984.28
2019-05-10T02:34:08.754Z,984.28
2019-05-10T02:35:08.785Z,984.26
2019-05-10T02:36:08.826Z,984.23
2019-05-10T02:37:08.865Z,984.24
2019-05-10T02:38:08.905Z,984.25
2019-05-10T02:39:08.956Z,984.29
2019-05-10T02:40:08.987Z,984.28
2019-05-10T02:41:09.028Z,984.31
2019-05-10T02:42:09.069Z,984.27
2019-05-10T02:43:09.109Z,984.30
2019-05-10T02:44:09.153Z,984.28
2019-05-10T02:45:09.318Z,984.28
2019-05-10T02:46:09.302Z,984.29
2019-05-10T02:47:09.271Z,984.34
2019-05-10T02:48:09.312Z,984.35
2019-05-10T02:49:09.351Z,984.33
2019-05-10T02:50:09.391Z,984.39
2019-05-10T02:51:09.433Z,984.40
2019-05-10T02:52:09.472Z,984.39
2019-05-10T02:53:09.514Z,984.40
2019-05-10T02:54:09.553Z,984.40
2019-05-10T02:55:09.595Z,984.34
2019-05-10T02:56:27.840Z,984.35
2019-05-10T02:57:09.677Z,984.36
2019-05-10T02:58:14.253Z,984.37
2019-05-10T02:59:09.757Z,984.38
2019-05-10T03:00:09.797Z,984.44
2019-05-10T03:01:09.836Z,984.41
2019-05-10T03:02:09.878Z,984.40
2019-05-10T03:03:09.931Z,984.45
2019-05-10T03:04:09.975Z,984.40
2019-05-10T03:05:09.998Z,984.43
2019-05-10T03:06:10.041Z,984.46
2019-05-10T03:07:10.080Z,984.43
2019-05-10T03:08:10.122Z,984.45
2019-05-10T03:09:10.164Z,984.45
2019-05-10T03:10:10.255Z,984.49
2019-05-10T03:11:10.240Z,984.51
2019-05-10T03:12:10.284Z,984.57
2019-05-10T03:13:10.327Z,984.56
2019-05-10T03:14:10.371Z,984.53
2019-05-10T03:15:10.406Z,984.58
2019-05-10T03:16:10.446Z,984.61
2019-05-10T03:17:10.486Z,984.66
2019-05-10T03:18:10.530Z,984.65
2019-05-10T03:19:10.566Z,984.66
2019-05-10T03:20:10.620Z,984.68
2019-05-10T03:21:10.651Z,984.66
2019-05-10T03:22:10.686Z,984.63
2019-05-10T03:23:10.730Z,984.64
2019-05-10T03:24:10.769Z,984.60
2019-05-10T03:25:10.810Z,984.62
2019-05-10T03:26:10.847Z,984.63
2019-05-10T03:27:10.897Z,984.66
2019-05-10T03:28:10.930Z,984.65
2019-05-10T03:29:10.971Z,984.67
2019-05-10T03:30:11.015Z,984.65
2019-05-10T03:31:11.064Z,984.67
2019-05-10T03:32:11.097Z,984.70
2019-05-10T03:33:11.135Z,984.71
2019-05-10T03:34:11.173Z,984.72
2019-05-10T03:35:11.243Z,984.72
2019-05-10T03:36:11.259Z,984.74
2019-05-10T03:37:11.307Z,984.76
2019-05-10T03:38:11.334Z,984.77
2019-05-10T03:39:11.373Z,984.77
2019-05-10T03:40:11.416Z,984.81
2019-05-10T03:41:11.457Z,984.83
2019-05-10T03:42:11.500Z,984.81
2019-05-10T03:43:11.549Z,984.81
2019-05-10T03:44:11.580Z,984.89
2019-05-10T03:45:11.618Z,984.87
2019-05-10T03:46:11.666Z,984.89
2019-05-10T03:47:11.714Z,984.89
2019-05-10T03:48:11.739Z,984.91
2019-05-10T03:49:11.778Z,984.90
2019-05-10T03:50:11.817Z,984.88
2019-05-10T03:51:11.867Z,984.89
2019-05-10T03:52:11.901Z,984.89
2019-05-10T03:53:11.952Z,984.91
2019-05-10T03:54:12.020Z,984.91
2019-05-10T03:55:12.017Z,984.96
2019-05-10T03:56:12.060Z,984.93
2019-05-10T03:57:14.451Z,984.94
2019-05-10T03:58:12.147Z,984.97
2019-05-10T03:59:12.179Z,985.00
2019-05-10T04:00:12.220Z,985.05
2019-05-10T04:01:12.263Z,985.08
2019-05-10T04:02:12.311Z,985.04
2019-05-10T04:03:12.345Z,985.03
2019-05-10T04:04:12.389Z,985.05
2019-05-10T04:05:12.439Z,985.06
2019-05-10T04:06:12.469Z,985.04
2019-05-10T04:07:12.501Z,985.08
2019-05-10T04:08:12.552Z,985.12
2019-05-10T04:09:12.583Z,985.10
2019-05-10T04:10:12.623Z,985.16
2019-05-10T04:11:12.667Z,985.12
2019-05-10T04:12:12.704Z,985.19
2019-05-10T04:13:12.758Z,985.20
2019-05-10T04:14:12.790Z,985.17
2019-05-10T04:15:12.830Z,985.27
2019-05-10T04:16:12.869Z,985.23
2019-05-10T04:17:12.907Z,985.24
2019-05-10T04:18:12.948Z,985.19
2019-05-10T04:19:12.986Z,985.20
2019-05-10T04:20:13.027Z,985.22
2019-05-10T04:21:13.074Z,985.25
2019-05-10T04:22:13.105Z,985.29
2019-05-10T04:23:13.146Z,985.30
2019-05-10T04:24:13.186Z,985.25
2019-05-10T04:25:13.229Z,985.28
2019-05-10T04:26:13.276Z,985.25
2019-05-10T04:27:30.568Z,985.28
2019-05-10T04:28:13.351Z,985.33
2019-05-10T04:29:13.393Z,985.30
2019-05-10T04:30:13.428Z,985.28
2019-05-10T04:31:13.469Z,985.29
2019-05-10T04:32:13.510Z,985.31
2019-05-10T04:33:13.556Z,985.33
2019-05-10T04:34:13.593Z,985.36
2019-05-10T04:35:13.646Z,985.29
2019-05-10T04:36:13.674Z,985.34
2019-05-10T04:37:13.714Z,985.27
2019-05-10T04:38:13.754Z,985.28
2019-05-10T04:39:13.882Z,985.29
2019-05-10T04:40:13.846Z,985.39
2019-05-10T04:41:13.890Z,985.36
2019-05-10T04:42:13.914Z,985.35
2019-05-10T04:43:13.953Z,985.32
2019-05-10T04:44:13.994Z,985.33
2019-05-10T04:45:14.050Z,985.36
2019-05-10T04:46:14.075Z,985.34
2019-05-10T04:47:14.114Z,985.31
2019-05-10T04:48:14.232Z,985.26
2019-05-10T04:49:14.196Z,985.36
2019-05-10T04:50:14.231Z,985.31
2019-05-10T04:51:14.272Z,985.43
2019-05-10T04:52:14.313Z,985.36
2019-05-10T04:53:14.352Z,985.36
2019-05-10T04:54:14.394Z,985.32
2019-05-10T04:55:14.432Z,985.31
2019-05-10T04:56:14.473Z,985.36
2019-05-10T04:57:14.517Z,985.36
2019-05-10T04:58:14.570Z,985.33
2019-05-10T04:59:14.606Z,985.36
2019-05-10T05:00:14.633Z,985.40
2019-05-10T05:01:14.674Z,985.36
2019-05-10T05:02:14.716Z,985.34
2019-05-10T05:03:14.758Z,985.40
2019-05-10T05:04:14.794Z,985.39
2019-05-10T05:05:14.833Z,985.40
2019-05-10T05:06:14.954Z,985.37
2019-05-10T05:07:14.913Z,985.39
2019-05-10T05:08:14.955Z,985.49
2019-05-10T05:09:14.994Z,985.49
2019-05-10T05:10:15.035Z,985.50
2019-05-10T05:11:15.074Z,985.46
2019-05-10T05:12:15.133Z,985.45
2019-05-10T05:13:15.157Z,985.41
2019-05-10T05:14:15.195Z,985.48
2019-05-10T05:15:15.250Z,985.52
2019-05-10T05:16:15.279Z,985.45
2019-05-10T05:17:15.317Z,985.49
2019-05-10T05:18:15.356Z,985.51
2019-05-10T05:19:15.402Z,985.51
2019-05-10T05:20:15.436Z,985.52
2019-05-10T05:21:15.477Z,985.53
2019-05-10T05:22:15.524Z,985.57
2019-05-10T05:23:15.561Z,985.60
2019-05-10T05:24:16.994Z,985.65
2019-05-10T05:25:15.639Z,985.63
2019-05-10T05:26:15.685Z,985.56
2019-05-10T05:27:15.720Z,985.58
2019-05-10T05:28:18.310Z,985.56
2019-05-10T05:29:15.801Z,985.59
2019-05-10T05:30:15.842Z,985.62
2019-05-10T05:31:15.889Z,985.69
2019-05-10T05:32:15.929Z,985.67
2019-05-10T05:33:15.970Z,985.69
2019-05-10T05:34:16.003Z,985.75
2019-05-10T05:35:16.061Z,985.77
2019-05-10T05:36:16.084Z,985.76
2019-05-10T05:37:16.130Z,985.75
2019-05-10T05:38:16.166Z,985.81
2019-05-10T05:39:16.209Z,985.83
2019-05-10T05:40:16.249Z,985.89
2019-05-10T05:41:16.462Z,985.89
2019-05-10T05:42:16.336Z,985.86
2019-05-10T05:43:16.367Z,985.86
2019-05-10T05:44:20.275Z,985.88
2019-05-10T05:45:16.457Z,985.92
2019-05-10T05:46:16.491Z,985.92
2019-05-10T05:47:16.538Z,985.94
2019-05-10T05:48:21.424Z,985.97
2019-05-10T05:49:16.613Z,986.05
2019-05-10T05:50:16.660Z,986.00
2019-05-10T05:51:16.693Z,985.94
2019-05-10T05:52:16.735Z,986.02
2019-05-10T05:53:16.777Z,985.97
2019-05-10T05:54:20.785Z,985.94
2019-05-10T05:55:16.861Z,985.98
2019-05-10T05:56:16.910Z,985.99
2019-05-10T05:57:16.942Z,986.08
2019-05-10T05:58:26.695Z,986.03
2019-05-10T05:59:23.183Z,985.99
2019-05-10T06:00:17.070Z,986.05
2019-05-10T06:01:26.795Z,986.00
2019-05-10T06:02:17.156Z,986.03
2019-05-10T06:03:27.704Z,986.01
2019-05-10T06:04:17.238Z,986.05
2019-05-10T06:05:32.592Z,986.04
2019-05-10T06:06:21.737Z,986.03
2019-05-10T06:07:17.365Z,986.09
2019-05-10T06:08:22.706Z,986.12
2019-05-10T06:09:17.455Z,986.11
2019-05-10T06:10:19.783Z,986.03
2019-05-10T06:11:17.533Z,986.11
2019-05-10T06:12:17.572Z,986.11
2019-05-10T06:13:17.616Z,986.11
2019-05-10T06:14:17.658Z,986.11
2019-05-10T06:15:17.703Z,986.18
2019-05-10T06:16:17.743Z,986.15
2019-05-10T06:17:17.783Z,986.12
2019-05-10T06:18:17.825Z,986.10
2019-05-10T06:19:20.500Z,986.07
2019-05-10T06:20:17.910Z,986.14
2019-05-10T06:21:24.527Z,986.13
2019-05-10T06:22:17.993Z,986.09
2019-05-10T06:23:18.062Z,986.20
2019-05-10T06:24:18.082Z,986.18
2019-05-10T06:25:18.142Z,986.15
2019-05-10T06:26:26.420Z,986.17
2019-05-10T06:27:18.220Z,986.23
2019-05-10T06:28:27.016Z,986.24
2019-05-10T06:29:19.880Z,986.24
2019-05-10T06:30:18.336Z,986.26
2019-05-10T06:31:18.380Z,986.23
2019-05-10T06:32:18.422Z,986.33
2019-05-10T06:33:18.467Z,986.34
2019-05-10T06:34:18.509Z,986.39
2019-05-10T06:35:19.423Z,986.45
2019-05-10T06:36:18.605Z,986.42
2019-05-10T06:37:18.640Z,986.40
2019-05-10T06:38:18.678Z,986.47
2019-05-10T06:39:18.721Z,986.44
2019-05-10T06:40:32.685Z,986.41
2019-05-10T06:41:19.217Z,986.41
2019-05-10T06:42:18.851Z,986.39
2019-05-10T06:43:18.899Z,986.42
2019-05-10T06:44:18.934Z,986.33
2019-05-10T06:45:18.976Z,986.34
2019-05-10T06:46:23.527Z,986.30
2019-05-10T06:47:21.783Z,986.33
2019-05-10T06:48:27.529Z,986.36
2019-05-10T06:49:19.151Z,986.39
2019-05-10T06:50:28.615Z,986.41
2019-05-10T06:51:19.236Z,986.36
2019-05-10T06:52:21.963Z,986.37
2019-05-10T06:53:19.342Z,986.41
2019-05-10T06:54:19.366Z,986.40
2019-05-10T06:55:19.410Z,986.45
2019-05-10T06:56:19.453Z,986.44
2019-05-10T06:57:19.497Z,986.36
2019-05-10T06:58:19.545Z,986.43
2019-05-10T06:59:24.981Z,986.43
2019-05-10T07:00:19.629Z,986.43
2019-05-10T07:01:19.670Z,986.35
2019-05-10T07:02:25.758Z,986.47
2019-05-10T07:03:19.766Z,986.44
2019-05-10T07:04:19.800Z,986.42
2019-05-10T07:05:19.844Z,986.45
2019-05-10T07:06:19.887Z,986.50
2019-05-10T07:07:32.855Z,986.42
2019-05-10T07:08:20.657Z,986.45
2019-05-10T07:09:20.020Z,986.41
2019-05-10T07:10:25.210Z,986.44
2019-05-10T07:11:20.103Z,986.45
2019-05-10T07:12:20.145Z,986.47
2019-05-10T07:13:20.188Z,986.48
2019-05-10T07:14:25.388Z,986.48
2019-05-10T07:15:20.273Z,986.49
2019-05-10T07:16:24.436Z,986.46
2019-05-10T07:17:20.360Z,986.48
2019-05-10T07:18:22.506Z,986.47
2019-05-10T07:19:20.446Z,986.50
2019-05-10T07:20:23.827Z,986.51
2019-05-10T07:21:20.532Z,986.55
2019-05-10T07:22:21.795Z,986.56
2019-05-10T07:23:20.628Z,986.53
2019-05-10T07:24:24.900Z,986.54
2019-05-10T07:25:20.706Z,986.69
2019-05-10T07:26:24.328Z,986.74
2019-05-10T07:27:20.799Z,986.65
2019-05-10T07:28:20.843Z,986.55
2019-05-10T07:29:29.547Z,986.53
2019-05-10T07:30:20.925Z,986.53
2019-05-10T07:31:23.511Z,986.50
2019-05-10T07:32:22.317Z,986.58
2019-05-10T07:33:21.051Z,986.56
2019-05-10T07:34:21.100Z,986.48
2019-05-10T07:35:21.138Z,986.52
2019-05-10T07:36:27.569Z,986.48
2019-05-10T07:37:21.225Z,986.54
2019-05-10T07:38:23.612Z,986.53
2019-05-10T07:39:21.309Z,986.50
2019-05-10T07:40:21.354Z,986.57
2019-05-10T07:41:26.637Z,986.56
2019-05-10T07:42:21.446Z,986.57
2019-05-10T07:43:26.526Z,986.64
2019-05-10T07:44:21.533Z,986.60
2019-05-10T07:45:25.478Z,986.61
2019-05-10T07:46:21.611Z,986.67
2019-05-10T07:47:23.827Z,986.60
2019-05-10T07:48:23.274Z,986.72
2019-05-10T07:49:23.758Z,986.81
2019-05-10T07:50:21.790Z,986.83
2019-05-10T07:51:28.102Z,986.93
2019-05-10T07:52:21.871Z,986.97
2019-05-10T07:53:22.994Z,987.02
2019-05-10T07:54:21.958Z,987.02
2019-05-10T07:55:27.690Z,987.09
2019-05-10T07:56:22.046Z,987.09
2019-05-10T07:57:24.784Z,986.99
2019-05-10T07:58:22.133Z,987.04
2019-05-10T07:59:28.213Z,987.05
2019-05-10T08:00:25.226Z,987.05
2019-05-10T08:01:32.167Z,987.10
2019-05-10T08:02:22.307Z,987.15
2019-05-10T08:03:23.862Z,987.10
2019-05-10T08:04:29.121Z,987.21
2019-05-10T08:05:22.440Z,987.19
2019-05-10T08:06:22.484Z,987.23
2019-05-10T08:07:22.528Z,987.19
2019-05-10T08:08:22.570Z,987.25
2019-05-10T08:09:22.627Z,987.29
2019-05-10T08:10:22.665Z,987.28
2019-05-10T08:11:22.703Z,987.36
2019-05-10T08:12:22.746Z,987.43
2019-05-10T08:13:25.159Z,987.48
2019-05-10T08:14:25.225Z,987.44
2019-05-10T08:15:24.751Z,987.47
2019-05-10T08:16:23.166Z,987.53
2019-05-10T08:17:22.970Z,987.47
2019-05-10T08:18:25.386Z,987.54
2019-05-10T08:19:23.068Z,987.61
2019-05-10T08:20:41.025Z,987.61
2019-05-10T08:21:26.262Z,987.62
2019-05-10T08:22:23.194Z,987.64
2019-05-10T08:23:27.852Z,987.64
2019-05-10T08:24:23.283Z,987.62
2019-05-10T08:26:24.778Z,987.66
2019-05-10T08:27:23.417Z,987.65
2019-05-10T08:28:28.002Z,987.69
2019-05-10T08:29:23.520Z,987.78
2019-05-10T08:30:28.941Z,987.69
2019-05-10T08:31:26.202Z,987.77
2019-05-10T08:32:25.647Z,987.74
2019-05-10T08:33:23.690Z,987.75
2019-05-10T08:34:29.055Z,987.75
2019-05-10T08:35:23.776Z,987.76
2019-05-10T08:36:23.824Z,987.76
2019-05-10T08:37:33.083Z,987.82
2019-05-10T08:38:23.911Z,987.79
2019-05-10T08:39:23.955Z,987.78
2019-05-10T08:40:28.165Z,987.84
2019-05-10T08:41:24.045Z,987.93
2019-05-10T08:42:37.904Z,987.93
2019-05-10T08:43:24.609Z,987.91
2019-05-10T08:44:24.182Z,987.91
2019-05-10T08:45:24.234Z,987.92
2019-05-10T08:46:34.817Z,987.94
2019-05-10T08:47:27.615Z,987.85
2019-05-10T08:48:27.410Z,987.97
2019-05-10T08:49:31.374Z,988.05
2019-05-10T08:50:42.491Z,987.95
2019-05-10T08:51:24.504Z,988.05
2019-05-10T08:52:30.661Z,988.05
2019-05-10T08:53:24.589Z,988.04
2019-05-10T08:54:26.530Z,988.08
2019-05-10T08:55:24.679Z,988.09
2019-05-10T08:56:24.733Z,988.06
2019-05-10T08:57:24.772Z,987.96
2019-05-10T08:58:31.492Z,987.97
2019-05-10T08:59:26.790Z,988.02
2019-05-10T09:00:41.458Z,988.02
2019-05-10T09:01:30.204Z,988.01
2019-05-10T09:02:29.013Z,988.01
2019-05-10T09:03:25.042Z,988.08
2019-05-10T09:04:25.090Z,988.08
2019-05-10T09:05:28.941Z,987.98
2019-05-10T09:06:25.177Z,987.96
2019-05-10T09:07:29.492Z,987.97
2019-05-10T09:08:28.530Z,988.00
2019-05-10T09:09:25.327Z,988.04
2019-05-10T09:10:25.361Z,988.07
2019-05-10T09:11:25.404Z,988.16
2019-05-10T09:12:25.451Z,988.20
2019-05-10T09:13:28.686Z,988.18
2019-05-10T09:14:25.538Z,988.12
2019-05-10T09:15:25.591Z,988.03
2019-05-10T09:16:29.049Z,988.09
2019-05-10T09:17:28.305Z,988.09
2019-05-10T09:18:25.717Z,988.09
2019-05-10T09:19:36.162Z,988.28
2019-05-10T09:20:26.598Z,988.31
2019-05-10T09:21:25.861Z,988.33
2019-05-10T09:22:33.911Z,988.30
2019-05-10T09:23:25.954Z,988.31
2019-05-10T09:24:25.997Z,988.34
2019-05-10T09:25:29.562Z,988.25
2019-05-10T09:26:26.078Z,988.29
2019-05-10T09:27:29.201Z,988.38
2019-05-10T09:28:26.179Z,988.34
2019-05-10T09:29:27.443Z,988.33
2019-05-10T09:30:26.254Z,988.37
2019-05-10T09:31:26.384Z,988.39
2019-05-10T09:32:29.094Z,988.53
2019-05-10T09:33:26.390Z,988.49
2019-05-10T09:34:27.309Z,988.51
2019-05-10T09:35:26.477Z,988.52
2019-05-10T09:36:31.064Z,988.57
2019-05-10T09:37:26.566Z,988.59
2019-05-10T09:38:28.749Z,988.56
2019-05-10T09:39:26.654Z,988.54
2019-05-10T09:40:26.713Z,988.49
2019-05-10T09:41:27.814Z,988.45
2019-05-10T09:42:35.023Z,988.50
2019-05-10T09:43:26.841Z,988.52
2019-05-10T09:44:26.880Z,988.48
2019-05-10T09:45:26.937Z,988.40
2019-05-10T09:46:26.968Z,988.48
2019-05-10T09:47:27.014Z,988.61
2019-05-10T09:48:27.057Z,988.63
2019-05-10T09:49:27.107Z,988.66
2019-05-10T09:50:30.437Z,988.62
2019-05-10T09:51:30.043Z,988.58
2019-05-10T09:52:27.238Z,988.60
2019-05-10T09:53:30.312Z,988.61
2019-05-10T09:54:29.367Z,988.66
2019-05-10T09:55:28.007Z,988.57
2019-05-10T09:56:27.678Z,988.57
2019-05-10T09:57:27.938Z,988.56
2019-05-10T09:58:28.416Z,988.65
2019-05-10T09:59:27.869Z,988.62
2019-05-10T10:00:30.259Z,988.56
2019-05-10T10:01:28.253Z,988.59
2019-05-10T10:02:33.646Z,988.69
2019-05-10T10:03:30.115Z,988.67
2019-05-10T10:04:28.259Z,988.65
2019-05-10T10:05:27.832Z,988.65
2019-05-10T10:06:29.843Z,988.65
2019-05-10T10:07:31.799Z,988.62
2019-05-10T10:08:28.374Z,988.65
2019-05-10T10:09:33.693Z,988.66
2019-05-10T10:10:32.199Z,988.62
2019-05-10T10:11:28.084Z,988.64
2019-05-10T10:12:28.946Z,988.69
2019-05-10T10:13:39.278Z,988.71
2019-05-10T10:14:28.454Z,988.70
2019-05-10T10:15:33.218Z,988.72
2019-05-10T10:16:28.353Z,988.73
2019-05-10T10:17:30.777Z,988.74
2019-05-10T10:18:28.514Z,988.73
2019-05-10T10:19:28.440Z,988.80
2019-05-10T10:20:30.011Z,988.75
2019-05-10T10:21:35.044Z,988.85
2019-05-10T10:22:28.588Z,988.85
2019-05-10T10:23:33.048Z,988.86
2019-05-10T10:24:28.654Z,988.87
2019-05-10T10:25:30.033Z,988.81
2019-05-10T10:26:28.743Z,988.83
2019-05-10T10:27:34.607Z,988.82
2019-05-10T10:28:28.831Z,988.80
2019-05-10T10:29:33.894Z,988.78
2019-05-10T10:30:31.385Z,988.80
2019-05-10T10:31:33.145Z,988.81
2019-05-10T10:32:31.561Z,988.85
2019-05-10T10:33:29.528Z,988.86
2019-05-10T10:34:32.567Z,988.89
2019-05-10T10:35:29.902Z,988.89
2019-05-10T10:36:29.184Z,988.85
2019-05-10T10:37:31.312Z,988.89
2019-05-10T10:38:31.287Z,988.84
2019-05-10T10:39:29.315Z,988.81
2019-05-10T10:40:29.358Z,988.91
2019-05-10T10:41:31.797Z,988.93
2019-05-10T10:42:29.445Z,988.95
2019-05-10T10:43:29.489Z,988.95
2019-05-10T10:44:29.542Z,988.97
2019-05-10T10:45:29.578Z,989.00
2019-05-10T10:46:29.626Z,989.07
2019-05-10T10:47:32.136Z,988.97
2019-05-10T10:48:29.710Z,988.99
2019-05-10T10:49:31.929Z,989.03
2019-05-10T10:50:29.796Z,988.95
2019-05-10T10:51:32.340Z,988.93
2019-05-10T10:52:29.885Z,988.91
2019-05-10T10:53:29.939Z,988.98
2019-05-10T10:54:36.180Z,988.99
2019-05-10T10:55:36.254Z,989.05
2019-05-10T10:56:30.062Z,989.06
2019-05-10T10:57:30.109Z,989.04
2019-05-10T10:58:30.157Z,989.07
2019-05-10T10:59:30.197Z,989.05
2019-05-10T11:00:30.240Z,989.17
2019-05-10T11:01:46.074Z,989.14
2019-05-10T11:02:33.652Z,989.01
2019-05-10T11:03:30.924Z,989.05
2019-05-10T11:04:30.425Z,989.04
2019-05-10T11:05:30.463Z,989.04
2019-05-10T11:06:30.508Z,989.00
2019-05-10T11:07:32.875Z,989.05
2019-05-10T11:08:32.855Z,989.02
2019-05-10T11:09:31.133Z,989.04
2019-05-10T11:10:31.297Z,989.03
2019-05-10T11:11:38.914Z,988.93
2019-05-10T11:12:30.897Z,988.93
2019-05-10T11:13:43.911Z,988.94
2019-05-10T11:14:32.050Z,988.94
2019-05-10T11:15:35.847Z,988.95
2019-05-10T11:16:30.952Z,988.96
2019-05-10T11:17:30.997Z,988.97
2019-05-10T11:18:31.741Z,988.97
2019-05-10T11:19:31.682Z,988.99
2019-05-10T11:20:31.851Z,988.96
2019-05-10T11:21:33.242Z,989.01
2019-05-10T11:22:31.859Z,988.98
2019-05-10T11:23:38.731Z,988.98
2019-05-10T11:24:31.309Z,989.00
2019-05-10T11:25:31.360Z,988.98
2019-05-10T11:26:34.952Z,989.05
2019-05-10T11:27:31.440Z,989.01
2019-05-10T11:28:38.613Z,989.05
2019-05-10T11:29:31.532Z,989.04
2019-05-10T11:30:32.493Z,989.04
2019-05-10T11:31:31.619Z,989.03
2019-05-10T11:32:31.723Z,989.05
2019-05-10T11:33:33.746Z,989.03
2019-05-10T11:34:37.366Z,989.04
2019-05-10T11:35:34.411Z,989.10
2019-05-10T11:36:31.844Z,989.08
2019-05-10T11:37:35.993Z,989.05
2019-05-10T11:38:32.003Z,989.05
2019-05-10T11:39:33.197Z,989.05
2019-05-10T11:40:34.892Z,989.09
2019-05-10T11:41:32.136Z,989.15
2019-05-10T11:42:32.104Z,989.13
2019-05-10T11:43:32.150Z,989.13
2019-05-10T11:44:32.193Z,989.10
2019-05-10T11:45:35.308Z,989.11
2019-05-10T11:46:32.284Z,989.12
2019-05-10T11:47:32.325Z,989.10
2019-05-10T11:48:36.989Z,989.11
2019-05-10T11:49:32.414Z,989.13
2019-05-10T11:50:35.265Z,989.18
2019-05-10T11:51:32.506Z,989.20
2019-05-10T11:52:34.680Z,989.23
2019-05-10T11:53:32.590Z,989.26
2019-05-10T11:54:32.639Z,989.29
2019-05-10T11:55:35.795Z,989.39
2019-05-10T11:56:32.721Z,989.44
2019-05-10T11:57:33.114Z,989.41
2019-05-10T11:58:37.672Z,989.37
2019-05-10T11:59:38.256Z,989.41
2019-05-10T12:00:34.329Z,989.30
2019-05-10T12:01:32.942Z,989.36
2019-05-10T12:03:33.032Z,989.34
2019-05-10T12:04:39.285Z,989.36
2019-05-10T12:05:33.121Z,989.39
2019-05-10T12:06:33.167Z,989.38
2019-05-10T12:07:40.357Z,989.40
2019-05-10T12:08:33.256Z,989.43
2019-05-10T12:09:33.298Z,989.43
2019-05-10T12:10:33.342Z,989.53
2019-05-10T12:11:39.647Z,989.46
2019-05-10T12:12:50.708Z,989.46
2019-05-10T12:13:33.478Z,989.51
2019-05-10T12:14:33.549Z,989.51
2019-05-10T12:15:33.565Z,989.57
2019-05-10T12:16:33.798Z,989.47
2019-05-10T12:17:33.655Z,989.30
2019-05-10T12:18:36.253Z,989.28
2019-05-10T12:19:47.783Z,989.36
2019-05-10T12:20:54.361Z,989.34
2019-05-10T12:21:33.841Z,989.39
2019-05-10T12:22:38.192Z,989.35
2019-05-10T12:23:33.925Z,989.36
2019-05-10T12:24:52.129Z,989.38
2019-05-10T12:25:51.405Z,989.31
2019-05-10T12:25:59.688Z,989.32
2019-05-10T12:27:44.365Z,989.37
2019-05-10T12:28:35.698Z,989.36
2019-05-10T12:29:34.204Z,989.33
2019-05-10T12:30:35.056Z,989.25